sensor_id;sensor_type;location;lat;lon;timestamp;P1;durP1;ratioP1;P2;durP2;ratioP2
18899;SDS011;9582;52.018;6.306;2023-02-10T00:01:59;45.40;;;27.40;;
18899;SDS011;9582;52.018;6.306;2023-02-10T00:04:29;52.73;;;28.93;;
18899;SDS011;9582;52.018;6.306;2023-02-10T00:06:58;52.47;;;29.20;;
18899;SDS011;9582;52.018;6.306;2023-02-10T00:09:34;56.13;;;28.17;;
18899;SDS011;9582;52.018;6.306;2023-02-10T00:12:03;51.90;;;28.87;;
18899;SDS011;9582;52.018;6.306;2023-02-10T00:14:40;58.90;;;30.40;;
18899;SDS011;9582;52.018;6.306;2023-02-10T00:17:08;55.80;;;28.17;;
18899;SDS011;9582;52.018;6.306;2023-02-10T00:19:37;53.63;;;28.17;;
18899;SDS011;9582;52.018;6.306;2023-02-10T00:22:06;54.10;;;28.87;;
18899;SDS011;9582;52.018;6.306;2023-02-10T00:24:42;65.67;;;29.57;;
18899;SDS011;9582;52.018;6.306;2023-02-10T00:27:08;56.20;;;29.67;;
18899;SDS011;9582;52.018;6.306;2023-02-10T00:29:34;55.47;;;29.27;;
18899;SDS011;9582;52.018;6.306;2023-02-10T00:32:07;53.00;;;30.37;;
18899;SDS011;9582;52.018;6.306;2023-02-10T00:34:38;62.27;;;30.73;;
18899;SDS011;9582;52.018;6.306;2023-02-10T00:37:13;57.03;;;30.27;;
18899;SDS011;9582;52.018;6.306;2023-02-10T00:39:46;63.77;;;32.43;;
18899;SDS011;9582;52.018;6.306;2023-02-10T00:42:12;61.73;;;30.00;;
18899;SDS011;9582;52.018;6.306;2023-02-10T00:44:42;61.70;;;30.77;;
18899;SDS011;9582;52.018;6.306;2023-02-10T00:47:18;59.60;;;29.50;;
18899;SDS011;9582;52.018;6.306;2023-02-10T00:49:48;71.40;;;32.27;;
18899;SDS011;9582;52.018;6.306;2023-02-10T00:52:23;75.33;;;32.83;;
18899;SDS011;9582;52.018;6.306;2023-02-10T00:54:54;72.40;;;31.23;;
18899;SDS011;9582;52.018;6.306;2023-02-10T00:57:22;70.23;;;32.90;;
18899;SDS011;9582;52.018;6.306;2023-02-10T00:59:48;73.17;;;32.40;;
18899;SDS011;9582;52.018;6.306;2023-02-10T01:02:22;81.83;;;34.50;;
18899;SDS011;9582;52.018;6.306;2023-02-10T01:04:55;77.70;;;34.37;;
18899;SDS011;9582;52.018;6.306;2023-02-10T01:07:24;78.07;;;32.37;;
18899;SDS011;9582;52.018;6.306;2023-02-10T01:10:08;71.70;;;32.97;;
18899;SDS011;9582;52.018;6.306;2023-02-10T01:12:34;74.10;;;32.90;;
18899;SDS011;9582;52.018;6.306;2023-02-10T01:15:05;89.23;;;33.93;;
18899;SDS011;9582;52.018;6.306;2023-02-10T01:17:38;97.63;;;35.50;;
18899;SDS011;9582;52.018;6.306;2023-02-10T01:20:07;75.37;;;30.47;;
18899;SDS011;9582;52.018;6.306;2023-02-10T01:22:34;75.80;;;30.50;;
18899;SDS011;9582;52.018;6.306;2023-02-10T01:25:05;105.47;;;31.80;;
18899;SDS011;9582;52.018;6.306;2023-02-10T01:27:39;68.67;;;27.33;;
18899;SDS011;9582;52.018;6.306;2023-02-10T01:32:41;79.53;;;28.23;;
18899;SDS011;9582;52.018;6.306;2023-02-10T01:35:17;72.53;;;29.10;;
18899;SDS011;9582;52.018;6.306;2023-02-10T01:37:43;89.30;;;31.13;;
18899;SDS011;9582;52.018;6.306;2023-02-10T01:40:13;81.90;;;30.67;;
18899;SDS011;9582;52.018;6.306;2023-02-10T01:42:43;75.17;;;30.70;;
18899;SDS011;9582;52.018;6.306;2023-02-10T01:45:17;74.47;;;31.13;;
18899;SDS011;9582;52.018;6.306;2023-02-10T01:47:51;174.97;;;40.43;;
18899;SDS011;9582;52.018;6.306;2023-02-10T01:50:20;85.73;;;33.00;;
18899;SDS011;9582;52.018;6.306;2023-02-10T01:52:53;74.20;;;31.17;;
18899;SDS011;9582;52.018;6.306;2023-02-10T01:55:24;103.43;;;34.17;;
18899;SDS011;9582;52.018;6.306;2023-02-10T01:58:04;85.63;;;32.93;;
18899;SDS011;9582;52.018;6.306;2023-02-10T02:00:37;105.57;;;36.10;;
18899;SDS011;9582;52.018;6.306;2023-02-10T02:03:14;73.57;;;32.90;;
18899;SDS011;9582;52.018;6.306;2023-02-10T02:05:46;77.00;;;35.40;;
18899;SDS011;9582;52.018;6.306;2023-02-10T02:08:13;75.00;;;34.53;;
18899;SDS011;9582;52.018;6.306;2023-02-10T02:11:00;75.73;;;33.13;;
18899;SDS011;9582;52.018;6.306;2023-02-10T02:13:44;81.43;;;34.07;;
18899;SDS011;9582;52.018;6.306;2023-02-10T02:16:25;75.60;;;33.00;;
18899;SDS011;9582;52.018;6.306;2023-02-10T02:19:06;75.87;;;34.07;;
18899;SDS011;9582;52.018;6.306;2023-02-10T02:24:52;76.07;;;34.93;;
18899;SDS011;9582;52.018;6.306;2023-02-10T02:30:33;68.87;;;34.40;;
18899;SDS011;9582;52.018;6.306;2023-02-10T02:33:24;71.13;;;31.87;;
18899;SDS011;9582;52.018;6.306;2023-02-10T02:35:59;69.50;;;33.13;;
18899;SDS011;9582;52.018;6.306;2023-02-10T02:38:36;65.80;;;31.90;;
18899;SDS011;9582;52.018;6.306;2023-02-10T02:41:07;62.90;;;31.53;;
18899;SDS011;9582;52.018;6.306;2023-02-10T02:43:38;64.90;;;30.33;;
18899;SDS011;9582;52.018;6.306;2023-02-10T02:46:11;61.00;;;30.80;;
18899;SDS011;9582;52.018;6.306;2023-02-10T02:48:51;65.37;;;31.07;;
18899;SDS011;9582;52.018;6.306;2023-02-10T02:51:26;57.43;;;30.27;;
18899;SDS011;9582;52.018;6.306;2023-02-10T02:54:06;71.13;;;33.77;;
18899;SDS011;9582;52.018;6.306;2023-02-10T02:56:40;60.17;;;30.10;;
18899;SDS011;9582;52.018;6.306;2023-02-10T02:59:16;81.13;;;33.37;;
18899;SDS011;9582;52.018;6.306;2023-02-10T03:01:46;76.13;;;33.17;;
18899;SDS011;9582;52.018;6.306;2023-02-10T03:04:22;62.80;;;31.13;;
18899;SDS011;9582;52.018;6.306;2023-02-10T03:07:02;74.40;;;33.27;;
18899;SDS011;9582;52.018;6.306;2023-02-10T03:09:33;60.47;;;30.40;;
18899;SDS011;9582;52.018;6.306;2023-02-10T03:12:02;67.50;;;33.10;;
18899;SDS011;9582;52.018;6.306;2023-02-10T03:14:29;67.03;;;32.57;;
18899;SDS011;9582;52.018;6.306;2023-02-10T03:17:04;56.93;;;31.17;;
18899;SDS011;9582;52.018;6.306;2023-02-10T03:19:36;64.70;;;32.33;;
18899;SDS011;9582;52.018;6.306;2023-02-10T03:22:10;66.83;;;31.03;;
18899;SDS011;9582;52.018;6.306;2023-02-10T03:24:37;64.20;;;31.63;;
18899;SDS011;9582;52.018;6.306;2023-02-10T03:27:11;75.97;;;33.27;;
18899;SDS011;9582;52.018;6.306;2023-02-10T03:29:38;72.33;;;32.73;;
18899;SDS011;9582;52.018;6.306;2023-02-10T03:32:11;67.67;;;32.17;;
18899;SDS011;9582;52.018;6.306;2023-02-10T03:34:57;73.90;;;33.63;;
18899;SDS011;9582;52.018;6.306;2023-02-10T03:37:26;60.23;;;32.00;;
18899;SDS011;9582;52.018;6.306;2023-02-10T03:40:01;63.23;;;32.93;;
18899;SDS011;9582;52.018;6.306;2023-02-10T03:42:31;65.67;;;32.20;;
18899;SDS011;9582;52.018;6.306;2023-02-10T03:45:01;65.00;;;33.87;;
18899;SDS011;9582;52.018;6.306;2023-02-10T03:47:30;61.67;;;31.63;;
18899;SDS011;9582;52.018;6.306;2023-02-10T03:49:59;72.20;;;31.23;;
18899;SDS011;9582;52.018;6.306;2023-02-10T03:52:29;64.63;;;33.07;;
18899;SDS011;9582;52.018;6.306;2023-02-10T03:54:59;68.93;;;33.13;;
18899;SDS011;9582;52.018;6.306;2023-02-10T03:57:25;63.60;;;33.40;;
18899;SDS011;9582;52.018;6.306;2023-02-10T03:59:59;66.20;;;33.07;;
18899;SDS011;9582;52.018;6.306;2023-02-10T04:02:38;143.10;;;41.03;;
18899;SDS011;9582;52.018;6.306;2023-02-10T04:05:12;74.27;;;35.37;;
18899;SDS011;9582;52.018;6.306;2023-02-10T04:07:41;92.07;;;38.70;;
18899;SDS011;9582;52.018;6.306;2023-02-10T04:10:16;109.80;;;38.37;;
18899;SDS011;9582;52.018;6.306;2023-02-10T04:12:49;79.27;;;37.07;;
18899;SDS011;9582;52.018;6.306;2023-02-10T04:15:19;154.40;;;41.63;;
18899;SDS011;9582;52.018;6.306;2023-02-10T04:17:46;216.17;;;46.80;;
18899;SDS011;9582;52.018;6.306;2023-02-10T04:20:18;79.03;;;35.07;;
18899;SDS011;9582;52.018;6.306;2023-02-10T04:22:52;119.43;;;41.33;;
18899;SDS011;9582;52.018;6.306;2023-02-10T04:25:20;110.10;;;39.80;;
18899;SDS011;9582;52.018;6.306;2023-02-10T04:27:48;124.00;;;40.50;;
18899;SDS011;9582;52.018;6.306;2023-02-10T04:30:16;105.90;;;39.80;;
18899;SDS011;9582;52.018;6.306;2023-02-10T04:32:53;139.27;;;43.33;;
18899;SDS011;9582;52.018;6.306;2023-02-10T04:35:25;88.57;;;38.13;;
18899;SDS011;9582;52.018;6.306;2023-02-10T04:37:53;87.80;;;36.90;;
18899;SDS011;9582;52.018;6.306;2023-02-10T04:40:23;67.93;;;33.93;;
18899;SDS011;9582;52.018;6.306;2023-02-10T04:42:54;78.57;;;35.13;;
18899;SDS011;9582;52.018;6.306;2023-02-10T04:45:28;69.60;;;34.60;;
18899;SDS011;9582;52.018;6.306;2023-02-10T04:47:57;70.30;;;33.97;;
18899;SDS011;9582;52.018;6.306;2023-02-10T04:50:42;70.73;;;34.07;;
18899;SDS011;9582;52.018;6.306;2023-02-10T04:53:17;76.40;;;35.30;;
18899;SDS011;9582;52.018;6.306;2023-02-10T04:55:46;73.17;;;34.57;;
18899;SDS011;9582;52.018;6.306;2023-02-10T04:58:16;69.53;;;32.53;;
18899;SDS011;9582;52.018;6.306;2023-02-10T05:00:43;69.70;;;34.87;;
18899;SDS011;9582;52.018;6.306;2023-02-10T05:03:12;71.07;;;34.70;;
18899;SDS011;9582;52.018;6.306;2023-02-10T05:05:42;59.47;;;32.73;;
18899;SDS011;9582;52.018;6.306;2023-02-10T05:08:09;72.50;;;34.93;;
18899;SDS011;9582;52.018;6.306;2023-02-10T05:10:35;70.43;;;35.00;;
18899;SDS011;9582;52.018;6.306;2023-02-10T05:13:04;71.57;;;33.90;;
18899;SDS011;9582;52.018;6.306;2023-02-10T05:15:34;70.87;;;35.20;;
18899;SDS011;9582;52.018;6.306;2023-02-10T05:18:06;83.87;;;35.33;;
18899;SDS011;9582;52.018;6.306;2023-02-10T05:20:39;68.77;;;33.57;;
18899;SDS011;9582;52.018;6.306;2023-02-10T05:23:07;69.10;;;34.70;;
18899;SDS011;9582;52.018;6.306;2023-02-10T05:25:36;72.30;;;33.30;;
18899;SDS011;9582;52.018;6.306;2023-02-10T05:28:06;75.27;;;34.13;;
18899;SDS011;9582;52.018;6.306;2023-02-10T05:30:37;72.07;;;33.73;;
18899;SDS011;9582;52.018;6.306;2023-02-10T05:33:03;70.87;;;34.93;;
18899;SDS011;9582;52.018;6.306;2023-02-10T05:35:32;71.30;;;33.53;;
18899;SDS011;9582;52.018;6.306;2023-02-10T05:38:01;76.40;;;34.97;;
18899;SDS011;9582;52.018;6.306;2023-02-10T05:40:29;80.33;;;35.50;;
18899;SDS011;9582;52.018;6.306;2023-02-10T05:42:56;84.97;;;36.20;;
18899;SDS011;9582;52.018;6.306;2023-02-10T05:45:25;71.73;;;33.27;;
18899;SDS011;9582;52.018;6.306;2023-02-10T05:47:52;72.57;;;33.87;;
18899;SDS011;9582;52.018;6.306;2023-02-10T05:50:18;69.53;;;36.07;;
18899;SDS011;9582;52.018;6.306;2023-02-10T05:53:08;65.87;;;34.20;;
18899;SDS011;9582;52.018;6.306;2023-02-10T05:55:42;73.63;;;35.93;;
18899;SDS011;9582;52.018;6.306;2023-02-10T05:58:13;68.17;;;33.57;;
18899;SDS011;9582;52.018;6.306;2023-02-10T06:00:40;71.07;;;34.10;;
18899;SDS011;9582;52.018;6.306;2023-02-10T06:03:11;73.97;;;36.27;;
18899;SDS011;9582;52.018;6.306;2023-02-10T06:05:42;71.83;;;35.87;;
18899;SDS011;9582;52.018;6.306;2023-02-10T06:08:13;68.80;;;34.70;;
18899;SDS011;9582;52.018;6.306;2023-02-10T06:10:42;85.73;;;36.93;;
18899;SDS011;9582;52.018;6.306;2023-02-10T06:13:12;73.67;;;35.17;;
18899;SDS011;9582;52.018;6.306;2023-02-10T06:15:48;82.27;;;37.20;;
18899;SDS011;9582;52.018;6.306;2023-02-10T06:18:14;78.73;;;37.63;;
18899;SDS011;9582;52.018;6.306;2023-02-10T06:20:41;83.53;;;36.87;;
18899;SDS011;9582;52.018;6.306;2023-02-10T06:23:09;75.43;;;35.03;;
18899;SDS011;9582;52.018;6.306;2023-02-10T06:25:40;79.17;;;36.20;;
18899;SDS011;9582;52.018;6.306;2023-02-10T06:28:12;73.20;;;36.50;;
18899;SDS011;9582;52.018;6.306;2023-02-10T06:30:43;83.43;;;38.17;;
18899;SDS011;9582;52.018;6.306;2023-02-10T06:33:13;87.77;;;36.50;;
18899;SDS011;9582;52.018;6.306;2023-02-10T06:35:44;85.80;;;38.23;;
18899;SDS011;9582;52.018;6.306;2023-02-10T06:38:11;82.37;;;37.10;;
18899;SDS011;9582;52.018;6.306;2023-02-10T06:40:49;90.07;;;38.37;;
18899;SDS011;9582;52.018;6.306;2023-02-10T06:43:20;95.37;;;39.07;;
18899;SDS011;9582;52.018;6.306;2023-02-10T06:45:46;85.23;;;37.77;;
18899;SDS011;9582;52.018;6.306;2023-02-10T06:48:20;82.80;;;37.53;;
18899;SDS011;9582;52.018;6.306;2023-02-10T06:50:47;83.50;;;38.97;;
18899;SDS011;9582;52.018;6.306;2023-02-10T06:53:20;83.20;;;38.43;;
18899;SDS011;9582;52.018;6.306;2023-02-10T06:55:49;77.53;;;36.93;;
18899;SDS011;9582;52.018;6.306;2023-02-10T06:58:17;77.77;;;37.10;;
18899;SDS011;9582;52.018;6.306;2023-02-10T07:00:52;83.93;;;38.77;;
18899;SDS011;9582;52.018;6.306;2023-02-10T07:03:25;77.63;;;36.70;;
18899;SDS011;9582;52.018;6.306;2023-02-10T07:05:59;84.40;;;37.97;;
18899;SDS011;9582;52.018;6.306;2023-02-10T07:08:27;79.80;;;38.53;;
18899;SDS011;9582;52.018;6.306;2023-02-10T07:10:54;83.83;;;39.47;;
18899;SDS011;9582;52.018;6.306;2023-02-10T07:13:24;82.97;;;38.77;;
18899;SDS011;9582;52.018;6.306;2023-02-10T07:15:50;86.93;;;38.60;;
18899;SDS011;9582;52.018;6.306;2023-02-10T07:18:22;88.87;;;39.80;;
18899;SDS011;9582;52.018;6.306;2023-02-10T07:20:48;87.17;;;39.37;;
18899;SDS011;9582;52.018;6.306;2023-02-10T07:23:18;86.97;;;38.13;;
18899;SDS011;9582;52.018;6.306;2023-02-10T07:25:45;87.63;;;37.77;;
18899;SDS011;9582;52.018;6.306;2023-02-10T07:28:13;82.90;;;40.93;;
18899;SDS011;9582;52.018;6.306;2023-02-10T07:30:42;90.27;;;41.27;;
18899;SDS011;9582;52.018;6.306;2023-02-10T07:33:13;97.13;;;41.77;;
18899;SDS011;9582;52.018;6.306;2023-02-10T07:35:41;108.17;;;42.97;;
18899;SDS011;9582;52.018;6.306;2023-02-10T07:38:12;101.13;;;43.17;;
18899;SDS011;9582;52.018;6.306;2023-02-10T07:40:40;102.53;;;41.93;;
18899;SDS011;9582;52.018;6.306;2023-02-10T07:43:07;107.70;;;43.17;;
18899;SDS011;9582;52.018;6.306;2023-02-10T07:45:45;120.87;;;45.57;;
18899;SDS011;9582;52.018;6.306;2023-02-10T07:48:11;128.47;;;45.70;;
18899;SDS011;9582;52.018;6.306;2023-02-10T07:50:43;258.23;;;55.63;;
18899;SDS011;9582;52.018;6.306;2023-02-10T07:53:13;191.87;;;50.43;;
18899;SDS011;9582;52.018;6.306;2023-02-10T07:55:48;205.97;;;49.37;;
18899;SDS011;9582;52.018;6.306;2023-02-10T07:58:19;243.57;;;53.57;;
18899;SDS011;9582;52.018;6.306;2023-02-10T08:00:51;297.73;;;61.40;;
18899;SDS011;9582;52.018;6.306;2023-02-10T08:03:20;173.87;;;47.77;;
18899;SDS011;9582;52.018;6.306;2023-02-10T08:05:47;156.20;;;47.03;;
18899;SDS011;9582;52.018;6.306;2023-02-10T08:08:16;191.57;;;48.40;;
18899;SDS011;9582;52.018;6.306;2023-02-10T08:10:48;173.67;;;46.33;;
18899;SDS011;9582;52.018;6.306;2023-02-10T08:13:24;287.77;;;54.60;;
18899;SDS011;9582;52.018;6.306;2023-02-10T08:15:58;292.20;;;57.50;;
18899;SDS011;9582;52.018;6.306;2023-02-10T08:18:25;146.33;;;42.03;;
18899;SDS011;9582;52.018;6.306;2023-02-10T08:20:58;125.77;;;41.43;;
18899;SDS011;9582;52.018;6.306;2023-02-10T08:23:25;160.57;;;46.03;;
18899;SDS011;9582;52.018;6.306;2023-02-10T08:25:54;143.47;;;43.27;;
18899;SDS011;9582;52.018;6.306;2023-02-10T08:28:25;131.73;;;39.63;;
18899;SDS011;9582;52.018;6.306;2023-02-10T08:31:03;182.63;;;43.93;;
18899;SDS011;9582;52.018;6.306;2023-02-10T08:33:35;154.90;;;40.50;;
18899;SDS011;9582;52.018;6.306;2023-02-10T08:36:03;117.57;;;35.70;;
18899;SDS011;9582;52.018;6.306;2023-02-10T08:38:38;133.23;;;40.57;;
18899;SDS011;9582;52.018;6.306;2023-02-10T08:41:12;111.27;;;37.13;;
18899;SDS011;9582;52.018;6.306;2023-02-10T08:43:42;123.13;;;39.47;;
18899;SDS011;9582;52.018;6.306;2023-02-10T08:46:20;207.70;;;45.10;;
18899;SDS011;9582;52.018;6.306;2023-02-10T08:48:47;170.57;;;40.03;;
18899;SDS011;9582;52.018;6.306;2023-02-10T08:51:16;226.83;;;47.37;;
18899;SDS011;9582;52.018;6.306;2023-02-10T08:53:46;119.17;;;37.40;;
18899;SDS011;9582;52.018;6.306;2023-02-10T08:56:16;100.43;;;34.57;;
18899;SDS011;9582;52.018;6.306;2023-02-10T08:58:43;86.53;;;30.83;;
18899;SDS011;9582;52.018;6.306;2023-02-10T09:01:14;106.63;;;35.70;;
18899;SDS011;9582;52.018;6.306;2023-02-10T09:03:45;91.80;;;32.70;;
18899;SDS011;9582;52.018;6.306;2023-02-10T09:06:13;86.73;;;33.57;;
18899;SDS011;9582;52.018;6.306;2023-02-10T09:08:50;87.13;;;32.67;;
18899;SDS011;9582;52.018;6.306;2023-02-10T09:11:21;114.40;;;35.70;;
18899;SDS011;9582;52.018;6.306;2023-02-10T09:13:49;87.50;;;31.23;;
18899;SDS011;9582;52.018;6.306;2023-02-10T09:16:19;89.20;;;33.97;;
18899;SDS011;9582;52.018;6.306;2023-02-10T09:18:51;96.90;;;32.87;;
18899;SDS011;9582;52.018;6.306;2023-02-10T09:21:22;95.20;;;33.10;;
18899;SDS011;9582;52.018;6.306;2023-02-10T09:23:49;80.40;;;32.13;;
18899;SDS011;9582;52.018;6.306;2023-02-10T09:26:18;76.20;;;25.87;;
18899;SDS011;9582;52.018;6.306;2023-02-10T09:28:48;94.50;;;34.63;;
18899;SDS011;9582;52.018;6.306;2023-02-10T09:31:23;84.87;;;31.67;;
18899;SDS011;9582;52.018;6.306;2023-02-10T09:33:51;86.00;;;31.27;;
18899;SDS011;9582;52.018;6.306;2023-02-10T09:36:24;81.17;;;31.77;;
18899;SDS011;9582;52.018;6.306;2023-02-10T09:38:58;70.40;;;25.57;;
18899;SDS011;9582;52.018;6.306;2023-02-10T09:41:32;82.43;;;30.67;;
18899;SDS011;9582;52.018;6.306;2023-02-10T09:44:11;82.50;;;28.83;;
18899;SDS011;9582;52.018;6.306;2023-02-10T09:46:46;73.23;;;29.57;;
18899;SDS011;9582;52.018;6.306;2023-02-10T09:49:33;86.30;;;30.43;;
18899;SDS011;9582;52.018;6.306;2023-02-10T09:52:15;78.80;;;30.93;;
18899;SDS011;9582;52.018;6.306;2023-02-10T09:54:57;80.70;;;30.37;;
18899;SDS011;9582;52.018;6.306;2023-02-10T09:57:34;65.97;;;27.03;;
18899;SDS011;9582;52.018;6.306;2023-02-10T10:00:12;77.93;;;29.80;;
18899;SDS011;9582;52.018;6.306;2023-02-10T10:02:46;77.47;;;30.20;;
18899;SDS011;9582;52.018;6.306;2023-02-10T10:05:22;75.17;;;30.13;;
18899;SDS011;9582;52.018;6.306;2023-02-10T10:08:04;75.93;;;29.87;;
18899;SDS011;9582;52.018;6.306;2023-02-10T10:10:40;70.00;;;30.17;;
18899;SDS011;9582;52.018;6.306;2023-02-10T10:13:12;81.90;;;30.80;;
18899;SDS011;9582;52.018;6.306;2023-02-10T10:15:47;73.00;;;29.07;;
18899;SDS011;9582;52.018;6.306;2023-02-10T10:18:26;64.87;;;26.67;;
18899;SDS011;9582;52.018;6.306;2023-02-10T10:21:02;76.17;;;30.10;;
18899;SDS011;9582;52.018;6.306;2023-02-10T10:23:39;68.97;;;27.53;;
18899;SDS011;9582;52.018;6.306;2023-02-10T10:26:23;65.87;;;25.37;;
18899;SDS011;9582;52.018;6.306;2023-02-10T10:29:17;69.93;;;29.63;;
18899;SDS011;9582;52.018;6.306;2023-02-10T10:31:47;72.07;;;27.17;;
18899;SDS011;9582;52.018;6.306;2023-02-10T10:34:21;78.43;;;28.67;;
18899;SDS011;9582;52.018;6.306;2023-02-10T10:37:09;64.90;;;25.50;;
18899;SDS011;9582;52.018;6.306;2023-02-10T10:39:43;65.53;;;29.03;;
18899;SDS011;9582;52.018;6.306;2023-02-10T10:42:17;66.83;;;29.20;;
18899;SDS011;9582;52.018;6.306;2023-02-10T10:44:58;76.33;;;29.70;;
18899;SDS011;9582;52.018;6.306;2023-02-10T10:47:39;78.27;;;30.83;;
18899;SDS011;9582;52.018;6.306;2023-02-10T10:50:27;69.23;;;28.50;;
18899;SDS011;9582;52.018;6.306;2023-02-10T10:52:55;74.80;;;30.07;;
18899;SDS011;9582;52.018;6.306;2023-02-10T10:55:31;75.20;;;30.57;;
18899;SDS011;9582;52.018;6.306;2023-02-10T10:58:01;68.20;;;30.57;;
18899;SDS011;9582;52.018;6.306;2023-02-10T11:00:48;73.97;;;28.40;;
18899;SDS011;9582;52.018;6.306;2023-02-10T11:03:18;80.43;;;31.50;;
18899;SDS011;9582;52.018;6.306;2023-02-10T11:05:57;73.00;;;31.90;;
18899;SDS011;9582;52.018;6.306;2023-02-10T11:08:29;69.13;;;30.90;;
18899;SDS011;9582;52.018;6.306;2023-02-10T11:10:58;69.43;;;29.73;;
18899;SDS011;9582;52.018;6.306;2023-02-10T11:13:29;68.67;;;28.50;;
18899;SDS011;9582;52.018;6.306;2023-02-10T11:15:58;75.30;;;29.93;;
18899;SDS011;9582;52.018;6.306;2023-02-10T11:18:30;74.23;;;30.07;;
18899;SDS011;9582;52.018;6.306;2023-02-10T11:20:58;69.40;;;29.33;;
18899;SDS011;9582;52.018;6.306;2023-02-10T11:23:31;67.63;;;29.30;;
18899;SDS011;9582;52.018;6.306;2023-02-10T11:26:16;70.83;;;29.03;;
18899;SDS011;9582;52.018;6.306;2023-02-10T11:28:45;67.23;;;29.07;;
18899;SDS011;9582;52.018;6.306;2023-02-10T11:31:23;72.23;;;30.10;;
18899;SDS011;9582;52.018;6.306;2023-02-10T11:33:55;69.17;;;28.87;;
18899;SDS011;9582;52.018;6.306;2023-02-10T11:36:30;70.30;;;28.53;;
18899;SDS011;9582;52.018;6.306;2023-02-10T11:39:02;71.97;;;28.80;;
18899;SDS011;9582;52.018;6.306;2023-02-10T11:41:33;60.27;;;25.73;;
18899;SDS011;9582;52.018;6.306;2023-02-10T11:44:20;63.90;;;26.17;;
18899;SDS011;9582;52.018;6.306;2023-02-10T11:46:53;63.23;;;26.77;;
18899;SDS011;9582;52.018;6.306;2023-02-10T11:49:21;66.50;;;27.63;;
18899;SDS011;9582;52.018;6.306;2023-02-10T11:51:50;63.70;;;27.33;;
18899;SDS011;9582;52.018;6.306;2023-02-10T11:54:23;58.53;;;25.17;;
18899;SDS011;9582;52.018;6.306;2023-02-10T11:57:00;59.53;;;26.90;;
18899;SDS011;9582;52.018;6.306;2023-02-10T11:59:52;57.27;;;25.90;;
18899;SDS011;9582;52.018;6.306;2023-02-10T12:02:28;59.90;;;26.40;;
18899;SDS011;9582;52.018;6.306;2023-02-10T12:05:12;60.63;;;26.00;;
18899;SDS011;9582;52.018;6.306;2023-02-10T12:07:51;55.73;;;23.73;;
18899;SDS011;9582;52.018;6.306;2023-02-10T12:10:31;51.43;;;23.30;;
18899;SDS011;9582;52.018;6.306;2023-02-10T12:13:04;53.20;;;23.57;;
18899;SDS011;9582;52.018;6.306;2023-02-10T12:15:46;52.70;;;23.33;;
18899;SDS011;9582;52.018;6.306;2023-02-10T12:18:33;52.73;;;25.13;;
18899;SDS011;9582;52.018;6.306;2023-02-10T12:21:18;55.03;;;23.20;;
18899;SDS011;9582;52.018;6.306;2023-02-10T12:24:17;52.03;;;24.03;;
18899;SDS011;9582;52.018;6.306;2023-02-10T12:26:58;48.13;;;23.27;;
18899;SDS011;9582;52.018;6.306;2023-02-10T12:29:39;48.93;;;23.37;;
18899;SDS011;9582;52.018;6.306;2023-02-10T12:32:19;53.53;;;23.57;;
18899;SDS011;9582;52.018;6.306;2023-02-10T12:34:59;49.57;;;23.57;;
18899;SDS011;9582;52.018;6.306;2023-02-10T12:38:00;56.03;;;24.47;;
18899;SDS011;9582;52.018;6.306;2023-02-10T12:40:49;56.43;;;24.07;;
18899;SDS011;9582;52.018;6.306;2023-02-10T12:43:29;47.80;;;20.90;;
18899;SDS011;9582;52.018;6.306;2023-02-10T12:46:17;45.67;;;18.53;;
18899;SDS011;9582;52.018;6.306;2023-02-10T12:49:01;44.70;;;20.50;;
18899;SDS011;9582;52.018;6.306;2023-02-10T12:51:40;43.43;;;21.30;;
18899;SDS011;9582;52.018;6.306;2023-02-10T12:54:22;46.33;;;22.67;;
18899;SDS011;9582;52.018;6.306;2023-02-10T12:57:03;46.43;;;20.23;;
18899;SDS011;9582;52.018;6.306;2023-02-10T12:59:38;44.83;;;19.17;;
18899;SDS011;9582;52.018;6.306;2023-02-10T13:02:18;44.57;;;21.43;;
18899;SDS011;9582;52.018;6.306;2023-02-10T13:04:49;48.10;;;22.33;;
18899;SDS011;9582;52.018;6.306;2023-02-10T13:07:24;45.10;;;23.07;;
18899;SDS011;9582;52.018;6.306;2023-02-10T13:10:03;46.57;;;22.23;;
18899;SDS011;9582;52.018;6.306;2023-02-10T13:12:42;42.20;;;20.73;;
18899;SDS011;9582;52.018;6.306;2023-02-10T13:15:15;45.50;;;22.03;;
18899;SDS011;9582;52.018;6.306;2023-02-10T13:17:50;42.40;;;22.40;;
18899;SDS011;9582;52.018;6.306;2023-02-10T13:20:30;50.23;;;23.53;;
18899;SDS011;9582;52.018;6.306;2023-02-10T13:23:09;42.83;;;21.90;;
18899;SDS011;9582;52.018;6.306;2023-02-10T13:25:50;44.17;;;21.47;;
18899;SDS011;9582;52.018;6.306;2023-02-10T13:28:36;47.60;;;23.47;;
18899;SDS011;9582;52.018;6.306;2023-02-10T13:31:18;44.33;;;22.00;;
18899;SDS011;9582;52.018;6.306;2023-02-10T13:33:59;42.43;;;20.67;;
18899;SDS011;9582;52.018;6.306;2023-02-10T13:36:32;44.27;;;18.60;;
18899;SDS011;9582;52.018;6.306;2023-02-10T13:39:13;33.63;;;16.60;;
18899;SDS011;9582;52.018;6.306;2023-02-10T13:41:45;27.60;;;14.93;;
18899;SDS011;9582;52.018;6.306;2023-02-10T13:44:26;35.93;;;16.53;;
18899;SDS011;9582;52.018;6.306;2023-02-10T13:47:11;33.63;;;14.90;;
18899;SDS011;9582;52.018;6.306;2023-02-10T13:49:53;27.17;;;10.93;;
18899;SDS011;9582;52.018;6.306;2023-02-10T13:52:26;26.13;;;10.60;;
18899;SDS011;9582;52.018;6.306;2023-02-10T13:55:23;26.70;;;10.97;;
18899;SDS011;9582;52.018;6.306;2023-02-10T13:58:17;20.83;;;8.67;;
18899;SDS011;9582;52.018;6.306;2023-02-10T14:00:56;19.23;;;8.63;;
18899;SDS011;9582;52.018;6.306;2023-02-10T14:03:26;15.50;;;8.13;;
18899;SDS011;9582;52.018;6.306;2023-02-10T14:06:03;19.53;;;7.77;;
18899;SDS011;9582;52.018;6.306;2023-02-10T14:08:39;19.73;;;8.33;;
18899;SDS011;9582;52.018;6.306;2023-02-10T14:13:58;22.23;;;9.03;;
18899;SDS011;9582;52.018;6.306;2023-02-10T14:16:28;19.40;;;8.80;;
18899;SDS011;9582;52.018;6.306;2023-02-10T14:19:05;18.27;;;7.93;;
18899;SDS011;9582;52.018;6.306;2023-02-10T14:21:46;15.47;;;7.33;;
18899;SDS011;9582;52.018;6.306;2023-02-10T14:24:16;17.20;;;7.40;;
18899;SDS011;9582;52.018;6.306;2023-02-10T14:26:49;14.03;;;6.30;;
18899;SDS011;9582;52.018;6.306;2023-02-10T14:29:19;19.73;;;8.03;;
18899;SDS011;9582;52.018;6.306;2023-02-10T14:31:49;20.77;;;9.57;;
18899;SDS011;9582;52.018;6.306;2023-02-10T14:34:22;17.87;;;8.43;;
18899;SDS011;9582;52.018;6.306;2023-02-10T14:37:10;20.73;;;9.93;;
18899;SDS011;9582;52.018;6.306;2023-02-10T14:39:50;25.43;;;11.27;;
18899;SDS011;9582;52.018;6.306;2023-02-10T14:42:30;26.13;;;11.93;;
18899;SDS011;9582;52.018;6.306;2023-02-10T14:44:58;27.80;;;10.57;;
18899;SDS011;9582;52.018;6.306;2023-02-10T14:47:32;26.13;;;12.33;;
18899;SDS011;9582;52.018;6.306;2023-02-10T14:50:18;21.57;;;10.60;;
18899;SDS011;9582;52.018;6.306;2023-02-10T14:52:49;21.70;;;11.17;;
18899;SDS011;9582;52.018;6.306;2023-02-10T14:55:23;19.77;;;10.37;;
18899;SDS011;9582;52.018;6.306;2023-02-10T14:57:52;15.87;;;9.63;;
18899;SDS011;9582;52.018;6.306;2023-02-10T15:00:30;21.03;;;11.43;;
18899;SDS011;9582;52.018;6.306;2023-02-10T15:03:06;25.57;;;12.73;;
18899;SDS011;9582;52.018;6.306;2023-02-10T15:05:46;23.23;;;9.70;;
18899;SDS011;9582;52.018;6.306;2023-02-10T15:08:27;25.00;;;12.47;;
18899;SDS011;9582;52.018;6.306;2023-02-10T15:11:03;26.80;;;12.20;;
18899;SDS011;9582;52.018;6.306;2023-02-10T15:13:40;24.20;;;11.73;;
18899;SDS011;9582;52.018;6.306;2023-02-10T15:16:13;28.30;;;15.17;;
18899;SDS011;9582;52.018;6.306;2023-02-10T15:18:57;26.13;;;15.13;;
18899;SDS011;9582;52.018;6.306;2023-02-10T15:21:27;31.53;;;15.97;;
18899;SDS011;9582;52.018;6.306;2023-02-10T15:23:58;32.07;;;15.63;;